Time;durP1;ratioP1;P1;durP2;ratioP2;P2;SDS_P1;SDS_P2;PMS_P1;PMS_P2;Temp;Humidity;BMP_temperature;BMP_pressure;BME280_temperature;BME280_humidity;BME280_pressure;Samples;Min_cycle;Max_cycle;Signal;HPM_P1;HPM_P2
2021/03/10 00:00:22;;;;;;;11.30;4.73;;;;;;;-5.53;62.12;100479.98;1713043;81;21207;-55
2021/03/10 00:02:50;;;;;;;12.97;3.67;;;;;;;-5.55;62.15;100489.13;1714205;81;21213;-55
2021/03/10 00:05:17;;;;;;;16.33;3.73;;;;;;;-5.58;62.17;100489.02;1710633;81;21539;-57
2021/03/10 00:07:46;;;;;;;12.63;4.40;;;;;;;-5.65;62.32;100492.33;1710206;81;21211;-56
2021/03/10 00:10:13;;;;;;;10.27;2.70;;;;;;;-5.74;62.78;100491.64;1710214;81;21579;-56
2021/03/10 00:12:42;;;;;;;15.23;4.43;;;;;;;-5.77;62.80;100490.23;1716038;81;21155;-55
2021/03/10 00:15:13;;;;;;;10.93;4.20;;;;;;;-5.80;62.82;100486.23;1717726;81;21116;-56
2021/03/10 00:17:42;;;;;;;12.43;4.13;;;;;;;-5.84;62.92;100486.08;1709034;81;21447;-57
2021/03/10 00:20:33;;;;;;;15.70;5.50;;;;;;;-5.88;63.05;100482.54;1712532;81;21192;-56
2021/03/10 00:23:00;;;;;;;10.33;3.80;;;;;;;-5.89;63.12;100489.94;1759206;79;23237;-56
2021/03/10 00:25:27;;;;;;;15.10;4.87;;;;;;;-5.88;63.18;100490.83;1757067;79;21299;-57
2021/03/10 00:27:54;;;;;;;15.23;4.70;;;;;;;-5.94;63.13;100489.31;1756583;79;21196;-56
2021/03/10 00:30:22;;;;;;;14.73;5.00;;;;;;;-5.99;63.39;100485.68;1755451;79;21204;-56
2021/03/10 00:32:49;;;;;;;14.67;6.67;;;;;;;-6.00;63.44;100485.20;1755773;79;21114;-56
2021/03/10 00:35:18;;;;;;;22.77;7.80;;;;;;;-5.99;63.61;100488.30;1753069;79;21198;-57
2021/03/10 00:37:46;;;;;;;22.63;10.10;;;;;;;-5.97;63.72;100488.83;1760014;79;21132;-56
2021/03/10 00:40:13;;;;;;;30.50;12.50;;;;;;;-5.96;63.63;100491.02;1758038;79;21163;-56
2021/03/10 00:42:40;;;;;;;28.03;13.77;;;;;;;-6.00;63.39;100484.79;1747064;79;21109;-56
2021/03/10 00:45:09;;;;;;;29.43;13.37;;;;;;;-6.02;63.41;100486.89;1741088;80;21181;-55
2021/03/10 00:47:36;;;;;;;27.23;12.57;;;;;;;-6.04;63.42;100492.53;1741597;80;21582;-56
2021/03/10 00:50:06;;;;;;;30.93;12.43;;;;;;;-6.06;63.35;100487.66;1742078;80;21180;-56
2021/03/10 00:52:33;;;;;;;22.03;10.27;;;;;;;-6.08;63.28;100483.67;1740960;80;21168;-56
2021/03/10 00:55:00;;;;;;;28.07;9.87;;;;;;;-6.10;63.31;100482.73;1740546;80;21505;-57
2021/03/10 00:57:27;;;;;;;26.07;9.77;;;;;;;-6.13;63.31;100480.05;1740326;80;21112;-57
2021/03/10 00:59:56;;;;;;;22.23;9.50;;;;;;;-6.16;63.27;100479.52;1740305;80;22627;-57
2021/03/10 01:02:23;;;;;;;18.47;7.63;;;;;;;-6.19;63.31;100480.73;1741766;80;21159;-56
2021/03/10 01:04:50;;;;;;;16.73;6.90;;;;;;;-6.21;63.41;100478.92;1741717;80;21137;-57
2021/03/10 01:07:18;;;;;;;22.93;6.77;;;;;;;-6.23;63.38;100478.88;1740208;80;21916;-57
2021/03/10 01:09:45;;;;;;;21.67;6.87;;;;;;;-6.24;63.38;100476.20;1741049;80;21121;-57
2021/03/10 01:12:13;;;;;;;19.43;8.00;;;;;;;-6.27;63.36;100473.48;1741446;80;21212;-56
2021/03/10 01:14:41;;;;;;;21.97;6.20;;;;;;;-6.30;63.31;100473.41;1740043;80;21228;-56
2021/03/10 01:17:08;;;;;;;12.03;5.40;;;;;;;-6.34;63.37;100475.03;1739783;80;21474;-57
2021/03/10 01:19:37;;;;;;;12.10;4.37;;;;;;;-6.37;63.34;100472.30;1739265;80;21201;-57
2021/03/10 01:22:04;;;;;;;10.73;3.77;;;;;;;-6.40;63.33;100470.03;1732062;80;21565;-55
2021/03/10 01:24:31;;;;;;;9.67;3.23;;;;;;;-6.41;63.27;100469.14;1724309;81;22804;-56
2021/03/10 01:26:59;;;;;;;10.53;3.57;;;;;;;-6.44;63.26;100468.14;1723951;81;21244;-56
2021/03/10 01:29:26;;;;;;;13.40;2.97;;;;;;;-6.47;63.35;100474.62;1722263;81;21203;-57
2021/03/10 01:31:54;;;;;;;8.50;3.70;;;;;;;-6.49;63.35;100474.56;1726298;81;21178;-56
2021/03/10 01:34:22;;;;;;;8.17;3.57;;;;;;;-6.50;63.29;100475.41;1725038;81;21465;-57
2021/03/10 01:36:49;;;;;;;10.30;3.63;;;;;;;-6.52;63.29;100471.84;1722543;81;22194;-55
2021/03/10 01:39:16;;;;;;;12.00;4.20;;;;;;;-6.54;63.29;100476.12;1724209;81;21187;-57
2021/03/10 01:41:43;;;;;;;8.43;2.10;;;;;;;-6.59;63.29;100476.42;1723901;81;21214;-57
2021/03/10 01:44:15;;;;;;;10.37;3.30;;;;;;;-6.63;63.34;100478.04;1724812;81;21183;-56
2021/03/10 01:46:42;;;;;;;9.23;2.20;;;;;;;-6.66;63.44;100477.97;1725237;81;21128;-55
2021/03/10 01:49:10;;;;;;;13.20;4.27;;;;;;;-6.68;63.51;100474.40;1724342;81;23299;-56
2021/03/10 01:51:38;;;;;;;7.70;2.03;;;;;;;-6.68;63.59;100473.51;1723721;81;21191;-55
2021/03/10 01:54:05;;;;;;;7.97;3.23;;;;;;;-6.70;63.56;100476.48;1722326;81;21183;-57
2021/03/10 01:56:33;;;;;;;6.10;1.90;;;;;;;-6.70;63.65;100474.77;1725005;81;21167;-56
2021/03/10 01:59:00;;;;;;;10.53;2.17;;;;;;;-6.70;63.58;100479.11;1723941;81;21212;-55
2021/03/10 02:03:49;;;;;;;10.37;3.03;;;;;;;-6.68;63.55;100475.71;1869072;75;21998;-55
2021/03/10 02:06:36;;;;;;;6.50;2.47;;;;;;;-6.76;63.57;100476.30;1800784;78;21171;-56
2021/03/10 02:09:15;;;;;;;7.80;2.13;;;;;;;-6.77;63.62;100481.95;1774836;78;21381;-55
2021/03/10 02:11:57;;;;;;;6.43;2.97;;;;;;;-6.80;63.59;100487.53;1796982;78;21068;-55
2021/03/10 02:14:44;;;;;;;6.93;2.07;;;;;;;-6.83;63.66;100483.50;1767211;78;21186;-56
2021/03/10 02:17:15;;;;;;;8.40;2.63;;;;;;;-6.85;63.74;100489.09;1777831;78;21048;-54
2021/03/10 02:20:06;;;;;;;9.03;3.23;;;;;;;-6.87;63.71;100482.07;1807501;78;21364;-56
2021/03/10 02:23:03;;;;;;;9.60;3.53;;;;;;;-6.87;63.70;100479.45;1773815;78;21521;-56
2021/03/10 02:25:48;;;;;;;10.27;3.13;;;;;;;-6.88;63.70;100483.33;1806085;78;21179;-55
2021/03/10 02:28:15;;;;;;;9.03;2.77;;;;;;;-6.90;63.76;100482.41;1775163;78;28538;-55
2021/03/10 02:30:44;;;;;;;11.00;2.60;;;;;;;-6.91;63.79;100477.59;1806777;78;21946;-56
2021/03/10 02:33:19;;;;;;;5.30;1.67;;;;;;;-6.92;63.78;100475.81;1782725;78;21678;-55
2021/03/10 02:35:50;;;;;;;8.60;2.40;;;;;;;-6.94;63.74;100480.52;1776560;78;21210;-54
2021/03/10 02:38:19;;;;;;;9.23;4.10;;;;;;;-6.94;63.83;100486.64;1768005;79;21564;-55
2021/03/10 02:40:48;;;;;;;8.03;2.70;;;;;;;-6.95;63.80;100480.94;1770962;79;21108;-55
2021/03/10 02:43:15;;;;;;;6.70;2.90;;;;;;;-6.94;63.70;100484.03;1781831;78;21516;-55
2021/03/10 02:45:43;;;;;;;11.13;3.00;;;;;;;-6.95;63.75;100486.17;1746266;80;21206;-54
2021/03/10 02:48:10;;;;;;;12.60;3.33;;;;;;;-6.97;63.74;100481.30;1778207;78;21370;-54
2021/03/10 02:50:39;;;;;;;11.33;2.77;;;;;;;-6.97;63.76;100477.78;1779871;78;21111;-53
2021/03/10 02:53:08;;;;;;;9.00;3.83;;;;;;;-6.98;63.74;100482.16;1779918;78;21136;-54
2021/03/10 02:55:35;;;;;;;6.40;2.47;;;;;;;-6.99;63.68;100473.84;1784061;78;21152;-54
2021/03/10 02:58:02;;;;;;;8.47;3.10;;;;;;;-7.02;63.70;100481.58;1780552;78;21217;-56
2021/03/10 03:00:30;;;;;;;10.30;2.93;;;;;;;-7.00;63.68;100474.67;1777413;78;22735;-56
2021/03/10 03:02:57;;;;;;;6.87;2.70;;;;;;;-7.03;63.62;100485.03;1786528;78;21155;-53
2021/03/10 03:05:25;;;;;;;9.23;2.87;;;;;;;-7.05;63.62;100485.80;1787200;78;21774;-53
2021/03/10 03:07:52;;;;;;;14.33;3.53;;;;;;;-7.07;63.66;100483.16;1788762;78;21251;-55
2021/03/10 03:10:25;;;;;;;9.27;2.63;;;;;;;-7.07;63.67;100484.47;1790173;78;21875;-53
2021/03/10 03:12:52;;;;;;;12.70;3.17;;;;;;;-7.06;63.59;100484.91;1789446;78;21260;-55
2021/03/10 03:15:22;;;;;;;13.63;3.33;;;;;;;-7.09;63.46;100480.91;1790468;78;21756;-54
2021/03/10 03:17:49;;;;;;;8.27;3.50;;;;;;;-7.14;63.44;100485.48;1792965;78;21200;-54
2021/03/10 03:20:19;;;;;;;6.70;3.13;;;;;;;-7.18;63.54;100487.13;1788471;78;21202;-55
2021/03/10 03:22:50;;;;;;;11.60;3.27;;;;;;;-7.20;63.59;100490.11;1789100;78;21107;-54
2021/03/10 03:25:18;;;;;;;9.93;3.20;;;;;;;-7.20;63.55;100491.42;1788319;78;21360;-54
2021/03/10 03:27:53;;;;;;;12.87;4.37;;;;;;;-7.21;63.55;100484.41;1786961;78;21507;-55
2021/03/10 03:30:21;;;;;;;16.32;4.65;;;;;;;-7.22;63.66;100498.31;1789679;78;21163;-54
2021/03/10 03:32:48;;;;;;;11.93;3.53;;;;;;;-7.23;63.70;100500.49;1790624;78;21676;-53
2021/03/10 03:35:16;;;;;;;11.77;4.30;;;;;;;-7.22;63.70;100495.70;1790109;78;20934;-53
2021/03/10 03:37:45;;;;;;;16.83;4.83;;;;;;;-7.20;63.67;100497.06;1754193;80;21388;-53
2021/03/10 03:40:13;;;;;;;14.67;4.90;;;;;;;-7.19;63.57;100498.84;1788520;78;21148;-53
2021/03/10 03:42:40;;;;;;;17.20;5.73;;;;;;;-7.21;63.58;100494.87;1787118;78;21932;-54
2021/03/10 03:45:08;;;;;;;19.20;6.20;;;;;;;-7.22;63.59;100491.77;1754023;80;21120;-54
2021/03/10 03:47:38;;;;;;;15.97;5.33;;;;;;;-7.25;63.54;100495.62;1754277;79;21134;-53
2021/03/10 03:50:07;;;;;;;15.67;5.93;;;;;;;-7.28;63.48;100492.88;1784013;78;21370;-53
2021/03/10 03:52:34;;;;;;;16.70;5.80;;;;;;;-7.31;63.52;100491.45;1753607;80;21290;-52
2021/03/10 03:55:01;;;;;;;20.40;6.37;;;;;;;-7.32;63.57;100497.55;1785687;78;21107;-54
2021/03/10 03:57:29;;;;;;;16.83;6.00;;;;;;;-7.32;63.54;100497.14;1784098;78;21526;-54
2021/03/10 03:59:56;;;;;;;20.67;6.23;;;;;;;-7.33;63.49;100495.77;1785515;78;21113;-54
2021/03/10 04:02:23;;;;;;;15.60;5.93;;;;;;;-7.35;63.55;100496.12;1786837;78;22087;-53
2021/03/10 04:04:51;;;;;;;17.00;6.20;;;;;;;-7.35;63.55;100500.05;1786297;78;21139;-53
2021/03/10 04:07:18;;;;;;;14.70;6.00;;;;;;;-7.37;63.51;100503.91;1779104;78;21092;-52
2021/03/10 04:09:45;;;;;;;14.80;5.20;;;;;;;-7.41;63.60;100495.92;1784129;78;21196;-53
2021/03/10 04:12:15;;;;;;;12.90;5.33;;;;;;;-7.43;63.75;100497.17;1788772;78;21164;-53
2021/03/10 04:14:42;;;;;;;14.77;6.77;;;;;;;-7.43;63.78;100497.59;1784937;78;21641;-54
2021/03/10 04:17:10;;;;;;;15.43;5.37;;;;;;;-7.45;63.80;100494.02;1784262;78;21165;-55
2021/03/10 04:19:37;;;;;;;14.33;5.37;;;;;;;-7.47;63.76;100493.96;1782373;78;21575;-54
2021/03/10 04:22:05;;;;;;;15.80;5.77;;;;;;;-7.46;63.80;100495.74;1757699;80;21165;-54
2021/03/10 04:24:32;;;;;;;20.27;9.00;;;;;;;-7.44;63.71;100501.03;1783235;78;21556;-54
2021/03/10 04:26:59;;;;;;;17.20;6.50;;;;;;;-7.46;63.71;100502.70;1779419;78;21190;-52
2021/03/10 04:29:26;;;;;;;15.07;7.20;;;;;;;-7.47;63.79;100495.69;1731467;80;21192;-53
2021/03/10 04:31:53;;;;;;;17.17;7.13;;;;;;;-7.48;63.82;100501.33;1757912;80;21187;-53
2021/03/10 04:34:21;;;;;;;15.37;5.90;;;;;;;-7.47;63.83;100507.45;1779710;78;21246;-52
2021/03/10 04:36:49;;;;;;;15.00;4.87;;;;;;;-7.46;63.84;100506.62;1755975;80;21163;-54
2021/03/10 04:39:16;;;;;;;13.47;5.43;;;;;;;-7.46;63.83;100504.00;1758935;79;21566;-53
2021/03/10 04:41:43;;;;;;;13.10;5.80;;;;;;;-7.44;63.88;100503.65;1760269;79;21759;-53
2021/03/10 04:44:11;;;;;;;12.83;4.67;;;;;;;-7.44;63.92;100504.54;1753410;79;21170;-55
2021/03/10 04:46:38;;;;;;;12.67;4.27;;;;;;;-7.42;64.01;100508.11;1758279;79;21184;-54
2021/03/10 04:49:09;;;;;;;14.47;6.03;;;;;;;-7.38;64.10;100511.70;1759664;79;21190;-53
2021/03/10 04:51:35;;;;;;;15.50;5.07;;;;;;;-7.35;64.15;100508.79;1757255;79;23435;-53
2021/03/10 04:54:03;;;;;;;13.57;3.73;;;;;;;-7.31;64.20;100515.00;1757955;79;21154;-53
2021/03/10 04:56:30;;;;;;;14.70;4.87;;;;;;;-7.28;64.25;100514.70;1761949;79;21268;-55
2021/03/10 04:58:57;;;;;;;16.00;5.43;;;;;;;-7.22;64.24;100518.35;1758488;79;21012;-55
2021/03/10 05:01:25;;;;;;;14.73;5.07;;;;;;;-7.20;64.17;100524.12;1759696;79;21110;-53
2021/03/10 05:03:52;;;;;;;17.37;4.87;;;;;;;-7.19;64.25;100519.78;1757124;79;21377;-54
2021/03/10 05:06:19;;;;;;;11.77;4.37;;;;;;;-7.16;64.39;100514.25;1755995;79;21921;-55
2021/03/10 05:08:48;;;;;;;15.67;4.77;;;;;;;-7.08;64.46;100520.62;1753561;79;21171;-55
2021/03/10 05:11:15;;;;;;;16.00;4.93;;;;;;;-6.98;64.44;100518.80;1754571;79;21804;-53
2021/03/10 05:13:43;;;;;;;18.03;5.87;;;;;;;-6.90;64.46;100519.95;1756093;79;21749;-54
2021/03/10 05:16:11;;;;;;;13.93;5.20;;;;;;;-6.79;64.32;100522.89;1756024;79;21221;-55
2021/03/10 05:18:38;;;;;;;17.47;5.83;;;;;;;-6.68;64.29;100525.45;1756417;79;22303;-54
2021/03/10 05:21:06;;;;;;;16.40;5.60;;;;;;;-6.54;64.28;100519.34;1758195;79;21186;-54
2021/03/10 05:23:33;;;;;;;17.00;7.40;;;;;;;-6.40;64.23;100524.63;1781702;78;21184;-53
2021/03/10 05:26:00;;;;;;;18.43;6.00;;;;;;;-6.23;64.20;100515.98;1775522;79;21150;-54
2021/03/10 05:28:27;;;;;;;18.80;7.50;;;;;;;-6.03;64.13;100519.18;1778507;78;22296;-54
2021/03/10 05:30:55;;;;;;;21.90;7.73;;;;;;;-5.81;64.06;100523.78;1778422;78;21199;-54
2021/03/10 05:33:22;;;;;;;25.60;8.70;;;;;;;-5.56;63.99;100525.37;1780975;78;21241;-54
2021/03/10 05:35:50;;;;;;;32.23;9.23;;;;;;;-5.28;63.88;100522.22;1784052;78;21167;-55
2021/03/10 05:38:19;;;;;;;20.93;8.70;;;;;;;-4.97;63.68;100512.98;1779226;78;21201;-56
2021/03/10 05:40:46;;;;;;;32.03;9.90;;;;;;;-4.65;63.37;100521.66;1779219;78;22485;-54
2021/03/10 05:43:13;;;;;;;28.47;9.27;;;;;;;-4.33;63.03;100510.60;1776275;78;21205;-55
2021/03/10 05:45:41;;;;;;;21.63;8.80;;;;;;;-3.99;62.58;100513.57;1753373;78;21160;-56
2021/03/10 05:48:08;;;;;;;18.20;7.17;;;;;;;-3.66;61.89;100518.70;1780701;78;21175;-56
2021/03/10 05:50:37;;;;;;;18.57;7.23;;;;;;;-3.31;61.18;100512.80;1746904;80;21505;-56
2021/03/10 05:53:04;;;;;;;23.00;7.73;;;;;;;-3.05;60.30;100516.38;1777819;78;21294;-56
2021/03/10 05:55:31;;;;;;;11.57;5.13;;;;;;;-2.87;59.70;100522.41;1753142;80;21203;-58
2021/03/10 05:57:58;;;;;;;13.27;4.67;;;;;;;-2.70;59.03;100522.70;1752362;79;21210;-58
2021/03/10 06:00:26;;;;;;;15.17;5.17;;;;;;;-2.56;58.35;100517.26;1779335;78;21477;-57
2021/03/10 06:02:53;;;;;;;10.43;4.93;;;;;;;-2.45;57.93;100519.62;1778874;78;21154;-56
2021/03/10 06:05:22;;;;;;;19.90;4.73;;;;;;;-2.40;57.56;100519.28;1783255;78;22678;-57
2021/03/10 06:08:03;;;;;;;17.10;5.03;;;;;;;-2.37;57.20;100517.98;1781518;78;21112;-56
2021/03/10 06:10:48;;;;;;;17.73;5.23;;;;;;;-2.35;56.97;100520.66;1781374;78;21102;-58
2021/03/10 06:13:26;;;;;;;6.97;3.63;;;;;;;-2.35;56.24;100528.14;1780264;78;21711;-59
2021/03/10 06:15:56;;;;;;;10.47;4.40;;;;;;;-2.35;55.42;100529.88;1780459;78;21500;-57
2021/03/10 06:18:34;;;;;;;10.67;3.43;;;;;;;-2.37;55.42;100531.17;1787760;78;21388;-57
2021/03/10 06:21:10;;;;;;;9.93;3.80;;;;;;;-2.37;54.94;100539.51;1781309;78;21119;-60
2021/03/10 06:23:55;;;;;;;14.30;4.50;;;;;;;-2.36;55.24;100540.86;1782784;78;21119;-59
2021/03/10 06:26:27;;;;;;;12.37;5.72;;;;;;;-2.32;55.02;100544.02;1785404;78;21444;-58
2021/03/10 06:28:55;;;;;;;15.03;5.17;;;;;;;-2.27;54.68;100545.82;1779795;79;21124;-59
2021/03/10 06:31:26;;;;;;;15.03;5.80;;;;;;;-2.24;54.67;100541.50;1786356;78;21374;-60
2021/03/10 06:34:11;;;;;;;12.47;5.07;;;;;;;-2.21;54.15;100536.25;1789135;78;21138;-60
2021/03/10 06:36:48;;;;;;;16.40;7.87;;;;;;;-2.17;54.08;100542.47;1783193;79;20964;-59
2021/03/10 06:39:28;;;;;;;12.17;4.30;;;;;;;-2.13;53.64;100537.72;1786879;78;21127;-59
2021/03/10 06:41:56;;;;;;;12.37;5.20;;;;;;;-2.09;53.31;100542.16;1788378;78;21087;-59
2021/03/10 06:44:27;;;;;;;11.67;5.40;;;;;;;-2.08;53.05;100542.61;1786644;79;21204;-58
2021/03/10 06:46:59;;;;;;;14.83;5.67;;;;;;;-2.04;52.65;100541.81;1786396;78;21124;-58
2021/03/10 06:49:29;;;;;;;12.93;4.70;;;;;;;-2.05;52.54;100540.92;1785331;79;21464;-58
2021/03/10 06:52:09;;;;;;;8.67;2.83;;;;;;;-2.02;52.84;100536.98;1782915;79;21142;-59
2021/03/10 06:54:37;;;;;;;13.97;4.63;;;;;;;-1.94;51.67;100539.73;1786959;78;21108;-57
2021/03/10 06:57:10;;;;;;;5.37;2.10;;;;;;;-1.88;51.84;100536.32;1785191;78;21200;-56
2021/03/10 06:59:51;;;;;;;5.53;2.50;;;;;;;-1.84;51.44;100536.80;1774404;79;21240;-57
2021/03/10 07:02:29;;;;;;;3.53;1.37;;;;;;;-1.78;50.78;100539.08;1775507;79;21619;-55
2021/03/10 07:05:00;;;;;;;2.97;0.87;;;;;;;-1.72;50.18;100539.19;1785560;78;21172;-57
2021/03/10 07:07:28;;;;;;;2.47;0.90;;;;;;;-1.65;50.09;100538.40;1783558;79;21179;-54
2021/03/10 07:09:56;;;;;;;3.80;1.17;;;;;;;-1.59;49.27;100539.79;1772657;80;21556;-55
2021/03/10 07:12:25;;;;;;;2.70;1.00;;;;;;;-1.52;49.08;100544.71;1783967;79;21219;-56
2021/03/10 07:14:53;;;;;;;6.03;0.90;;;;;;;-1.44;49.26;100540.41;1783390;78;21707;-54
2021/03/10 07:17:23;;;;;;;5.90;1.17;;;;;;;-1.38;48.36;100535.66;1759017;80;21170;-56
2021/03/10 07:19:50;;;;;;;4.73;1.20;;;;;;;-1.34;48.42;100538.34;1784919;78;21214;-55
2021/03/10 07:22:39;;;;;;;2.53;1.00;;;;;;;-1.28;48.63;100537.55;1778392;78;21223;-56
2021/03/10 07:25:30;;;;;;;6.00;1.00;;;;;;;-1.28;47.49;100530.95;1758114;78;21191;-57
2021/03/10 07:28:06;;;;;;;0.90;0.50;;;;;;;-1.29;47.46;100530.48;1756951;78;21220;-56
2021/03/10 07:30:42;;;;;;;1.63;0.50;;;;;;;-1.25;45.81;100531.84;1781148;78;21111;-55
2021/03/10 07:33:13;;;;;;;0.90;0.50;;;;;;;-1.19;45.78;100533.66;1783855;78;21528;-59
2021/03/10 07:35:58;;;;;;;1.20;0.40;;;;;;;-1.12;44.80;100534.21;1778594;78;21280;-54
2021/03/10 07:38:35;;;;;;;;;;;;;;;-1.08;45.55;100520.14;1781922;78;21142;-56
2021/03/10 07:41:06;;;;;;;0.97;0.50;;;;;;;-1.00;45.47;100525.08;1772885;79;20314;-55
2021/03/10 07:43:38;;;;;;;0.70;0.40;;;;;;;-0.96;44.16;100525.58;1778456;78;21195;-57
2021/03/10 07:46:24;;;;;;;1.80;0.40;;;;;;;-0.97;43.74;100522.91;1780152;78;21183;-57
2021/03/10 07:48:52;;;;;;;1.00;0.50;;;;;;;-1.02;44.03;100523.31;1776127;78;22927;-60
2021/03/10 07:51:33;;;;;;;3.20;0.60;;;;;;;-1.00;44.43;100528.16;1752020;80;21204;-56
2021/03/10 07:54:02;;;;;;;1.77;0.50;;;;;;;-0.94;44.19;100522.52;1774884;78;21834;-59
2021/03/10 07:56:31;;;;;;;1.57;0.60;;;;;;;-0.88;44.59;100519.93;1777408;78;21195;-57
2021/03/10 07:59:10;;;;;;;1.50;0.90;;;;;;;-0.80;44.95;100526.61;1752863;80;21214;-59
2021/03/10 08:01:37;;;;;;;1.00;0.60;;;;;;;-0.73;44.83;100523.15;1752568;79;21609;-58
2021/03/10 08:04:11;;;;;;;3.67;0.60;;;;;;;-0.66;44.17;100523.65;1773635;79;21174;-61
2021/03/10 08:06:50;;;;;;;1.50;0.60;;;;;;;-0.59;44.34;100521.94;1771846;79;21115;-59
2021/03/10 08:09:18;;;;;;;1.27;0.50;;;;;;;-0.55;44.23;100519.35;1769436;79;21159;-59
2021/03/10 08:11:51;;;;;;;0.83;0.50;;;;;;;-0.50;43.51;100528.20;1769475;79;21195;-60
2021/03/10 08:14:18;;;;;;;3.63;0.50;;;;;;;-0.49;43.48;100533.94;1764024;79;21471;-57
2021/03/10 08:16:49;;;;;;;0.70;0.50;;;;;;;-0.48;42.76;100520.28;1772425;79;21196;-59
2021/03/10 08:19:21;;;;;;;3.30;0.60;;;;;;;-0.43;43.19;100519.47;1762667;79;21226;-62
2021/03/10 08:21:51;;;;;;;2.47;0.80;;;;;;;-0.37;43.26;100511.12;1786213;78;21107;-61
2021/03/10 08:24:21;;;;;;;1.20;0.80;;;;;;;-0.32;43.47;100513.34;1781857;78;21543;-60
2021/03/10 08:26:57;;;;;;;1.10;0.60;;;;;;;-0.26;43.38;100520.03;1785466;78;21437;-61
2021/03/10 08:29:26;;;;;;;1.30;0.60;;;;;;;-0.21;42.94;100516.53;1784354;78;21247;-60
2021/03/10 08:31:57;;;;;;;1.53;0.50;;;;;;;-0.16;42.99;100509.94;1783370;78;21184;-60
2021/03/10 08:34:36;;;;;;;1.63;0.73;;;;;;;-0.15;42.69;100511.72;1786805;78;21152;-62
2021/03/10 08:37:10;;;;;;;3.03;0.83;;;;;;;-0.20;42.81;100505.08;1782866;78;21207;-60
2021/03/10 08:39:47;;;;;;;2.53;1.17;;;;;;;-0.22;42.54;100505.94;1772613;79;22300;-62
2021/03/10 08:42:18;;;;;;;3.73;0.60;;;;;;;-0.31;42.54;100504.11;1771059;79;21123;-61
2021/03/10 08:44:46;;;;;;;2.30;0.93;;;;;;;-0.35;42.69;100513.34;1768561;79;21198;-61
2021/03/10 08:47:17;;;;;;;1.67;0.80;;;;;;;-0.35;43.07;100514.23;1769101;79;21187;-63
2021/03/10 08:49:53;;;;;;;1.00;0.70;;;;;;;-0.32;42.53;100514.67;1771156;79;21156;-59
2021/03/10 08:52:22;;;;;;;1.27;0.80;;;;;;;-0.49;42.41;100514.54;1780866;78;21358;-58
2021/03/10 08:55:01;;;;;;;1.67;0.70;;;;;;;-0.53;43.09;100517.61;1788172;78;21212;-62
2021/03/10 08:57:34;;;;;;;1.60;0.63;;;;;;;-0.56;43.11;100514.05;1787214;78;21200;-60
2021/03/10 09:00:09;;;;;;;0.80;0.53;;;;;;;-0.54;43.10;100507.02;1783125;78;21168;-63
2021/03/10 09:02:39;;;;;;;1.13;0.60;;;;;;;-0.49;43.46;100506.61;1788672;78;21141;-62
2021/03/10 09:05:08;;;;;;;1.43;1.23;;;;;;;-0.44;43.63;100503.15;1786231;78;21193;-60
2021/03/10 09:07:36;;;;;;;1.20;0.53;;;;;;;-0.35;43.10;100506.30;1782564;78;21154;-62
2021/03/10 09:10:12;;;;;;;1.73;0.60;;;;;;;-0.25;42.70;100503.26;1783346;78;21486;-61
2021/03/10 09:12:45;;;;;;;0.70;0.50;;;;;;;-0.17;42.83;100501.58;1783745;78;21230;-64
2021/03/10 09:15:25;;;;;;;1.10;0.60;;;;;;;-0.12;42.50;100503.38;1785728;78;21161;-61
2021/03/10 09:18:05;;;;;;;0.93;0.60;;;;;;;-0.07;42.52;100501.63;1782747;78;21213;-62
2021/03/10 09:20:45;;;;;;;1.57;0.87;;;;;;;-0.04;42.55;100499.02;1776258;78;22576;-64
2021/03/10 09:23:25;;;;;;;2.13;0.90;;;;;;;-0.01;42.53;100501.69;1750455;80;21277;-64
2021/03/10 09:25:55;;;;;;;0.97;0.73;;;;;;;0.02;41.76;100499.48;1782771;78;21535;-60
2021/03/10 09:30:51;;;;;;;1.33;0.73;;;;;;;-0.01;42.54;100492.86;1823868;76;26869;-60
2021/03/10 09:33:27;;;;;;;2.43;0.80;;;;;;;-0.02;42.69;100497.27;1772007;78;21158;-64
2021/03/10 09:36:01;;;;;;;1.47;0.60;;;;;;;0.06;42.56;100500.39;1776932;78;20977;-63
2021/03/10 09:38:29;;;;;;;2.00;0.70;;;;;;;0.06;42.01;100497.31;1773487;78;20958;-63
2021/03/10 09:41:03;;;;;;;1.73;0.63;;;;;;;0.07;42.54;100498.20;1775321;78;21419;-61
2021/03/10 09:43:33;;;;;;;1.17;0.70;;;;;;;0.12;42.37;100499.98;1781550;78;20988;-63
2021/03/10 09:46:03;;;;;;;1.63;0.70;;;;;;;0.14;42.16;100498.67;1776877;78;21119;-62
2021/03/10 09:48:38;;;;;;;1.30;0.70;;;;;;;0.16;41.21;100496.93;1775556;78;21194;-62
2021/03/10 09:51:14;;;;;;;1.20;0.60;;;;;;;0.03;41.35;100499.04;1775989;78;20984;-62
2021/03/10 09:53:46;;;;;;;1.07;0.70;;;;;;;-0.07;41.43;100493.69;1774211;78;20994;-62
2021/03/10 09:56:18;;;;;;;0.90;0.60;;;;;;;-0.06;41.82;100500.76;1776145;78;20976;-65
2021/03/10 09:58:55;;;;;;;1.10;0.70;;;;;;;0.01;42.42;100499.02;1776180;78;21230;-61
2021/03/10 10:01:45;;;;;;;1.50;0.70;;;;;;;0.19;42.34;100497.81;1824348;76;26932;-62
2021/03/10 10:04:15;;;;;;;1.53;0.60;;;;;;;0.26;41.58;100490.78;1790573;77;21171;-65
2021/03/10 10:07:38;;;;;;;1.30;0.73;;;;;;;0.35;41.64;100497.45;1863220;75;27123;-65
2021/03/10 10:10:10;;;;;;;2.03;0.87;;;;;;;0.41;41.17;100491.31;1843172;76;20953;-66
2021/03/10 10:12:48;;;;;;;0.90;0.70;;;;;;;0.47;40.91;100487.36;1812203;76;21206;-64
2021/03/10 10:15:19;;;;;;;1.17;0.70;;;;;;;0.48;40.49;100492.67;1837327;76;21993;-65
2021/03/10 10:17:50;;;;;;;4.47;1.30;;;;;;;0.40;40.35;100485.13;1838081;76;21193;-63
2021/03/10 10:20:21;;;;;;;3.63;0.90;;;;;;;0.25;40.41;100487.71;1839086;76;21094;-64
2021/03/10 10:22:48;;;;;;;1.30;0.73;;;;;;;0.07;40.64;100487.61;1839370;76;20961;-65
2021/03/10 10:25:18;;;;;;;2.43;0.70;;;;;;;-0.20;40.89;100477.30;1834968;77;22070;-65
2021/03/10 10:27:47;;;;;;;1.00;0.70;;;;;;;-0.32;42.17;100478.95;1801193;77;21811;-65
2021/03/10 10:30:18;;;;;;;1.30;0.80;;;;;;;-0.25;42.51;100471.08;1842339;76;21141;-64
2021/03/10 10:32:47;;;;;;;1.17;0.60;;;;;;;-0.10;42.31;100480.89;1843422;76;21364;-61
2021/03/10 10:35:16;;;;;;;1.70;0.70;;;;;;;-0.01;41.06;100472.58;1840911;76;21170;-64
2021/03/10 10:37:44;;;;;;;4.63;0.70;;;;;;;0.09;41.17;100466.86;1841288;76;22685;-66
2021/03/10 10:40:34;;;;;;;4.23;0.70;;;;;;;0.21;41.16;100470.02;1842005;76;21177;-65
2021/03/10 10:43:03;;;;;;;1.10;0.60;;;;;;;0.34;41.58;100457.30;1727873;80;21113;-61
2021/03/10 10:45:31;;;;;;;2.50;0.83;;;;;;;0.47;40.85;100460.87;1728404;80;21182;-63
2021/03/10 10:48:00;;;;;;;3.23;0.63;;;;;;;0.53;39.14;100456.47;1760477;80;21193;-63
2021/03/10 10:50:30;;;;;;;1.63;0.57;;;;;;;0.52;39.57;100457.34;1756524;80;21281;-61
2021/03/10 10:52:59;;;;;;;1.37;0.70;;;;;;;0.55;39.03;100454.72;1753636;80;21550;-63
2021/03/10 10:55:27;;;;;;;1.50;0.80;;;;;;;0.57;37.96;100453.41;1703850;80;21193;-63
2021/03/10 10:57:57;;;;;;;0.83;0.60;;;;;;;0.58;39.37;100452.53;1753070;80;21237;-65
2021/03/10 11:00:26;;;;;;;1.43;0.70;;;;;;;0.55;39.11;100452.07;1755948;80;21505;-64
2021/03/10 11:02:55;;;;;;;1.90;0.67;;;;;;;0.53;39.96;100448.96;1761757;80;21619;-64
2021/03/10 11:05:25;;;;;;;0.87;0.60;;;;;;;0.58;40.15;100453.41;1758743;80;21224;-66
2021/03/10 11:07:55;;;;;;;1.30;0.77;;;;;;;0.64;39.97;100446.80;1759347;80;22006;-65
2021/03/10 11:10:24;;;;;;;1.20;0.70;;;;;;;0.67;38.79;100449.47;1764154;80;21098;-64
2021/03/10 11:12:52;;;;;;;0.80;0.60;;;;;;;0.70;39.14;100442.83;1766656;80;21191;-63
2021/03/10 11:15:21;;;;;;;2.47;0.70;;;;;;;0.71;38.83;100445.93;1756550;80;21212;-63
2021/03/10 11:17:58;;;;;;;2.00;0.80;;;;;;;0.77;38.74;100437.09;1845306;74;27741;-65
2021/03/10 11:20:27;;;;;;;2.33;0.60;;;;;;;0.79;39.05;100443.30;1832839;75;21130;-62
2021/03/10 11:22:55;;;;;;;0.77;0.57;;;;;;;0.88;38.71;100436.69;1829174;75;21202;-63
2021/03/10 11:25:23;;;;;;;1.00;0.53;;;;;;;0.89;38.54;100427.86;1830926;75;21516;-62
2021/03/10 11:27:50;;;;;;;1.33;0.60;;;;;;;0.90;37.30;100434.05;1841296;75;21167;-62
2021/03/10 11:30:20;;;;;;;0.90;0.63;;;;;;;0.85;37.07;100433.17;1836475;75;20968;-65
2021/03/10 11:32:48;;;;;;;1.40;0.50;;;;;;;0.80;37.36;100432.25;1840499;75;20975;-64
2021/03/10 11:35:17;;;;;;;1.03;0.60;;;;;;;0.77;36.12;100434.45;1833052;75;22128;-66
2021/03/10 11:37:46;;;;;;;2.43;0.60;;;;;;;0.80;36.55;100437.55;1838449;75;21113;-63
2021/03/10 11:40:15;;;;;;;1.47;0.60;;;;;;;0.81;37.24;100428.73;1813423;75;21197;-62
2021/03/10 11:42:44;;;;;;;1.83;0.80;;;;;;;0.80;37.80;100426.52;1850641;75;21178;-63